Time;durP1;ratioP1;P1;durP2;ratioP2;P2;SDS_P1;SDS_P2;PMS_P1;PMS_P2;Temp;Humidity;BMP_temperature;BMP_pressure;BME280_temperature;BME280_humidity;BME280_pressure;Samples;Min_cycle;Max_cycle;Signal;HPM_P1;HPM_P2
2021/12/29 00:01:04;;;;;;;5.47;2.50;;;;;;;7.95;100.00;99843.13;5052249;28;20488;-51
2021/12/29 00:03:32;;;;;;;6.72;2.95;;;;;;;7.93;100.00;99848.47;5052363;28;20531;-50
2021/12/29 00:06:02;;;;;;;7.78;2.90;;;;;;;7.95;100.00;99838.72;5052240;28;20045;-52
2021/12/29 00:08:30;;;;;;;8.10;3.60;;;;;;;7.93;100.00;99850.25;5052014;28;20385;-53
2021/12/29 00:10:58;;;;;;;7.40;3.20;;;;;;;7.93;100.00;99845.88;5052137;28;20102;-52
2021/12/29 00:13:28;;;;;;;9.20;3.55;;;;;;;7.96;100.00;99855.25;5049801;28;20099;-52
2021/12/29 00:15:58;;;;;;;7.53;2.95;;;;;;;7.93;100.00;99871.19;5050658;28;20075;-51
2021/12/29 00:18:27;;;;;;;7.20;3.17;;;;;;;7.90;100.00;99885.31;5050229;28;20131;-52
2021/12/29 00:20:56;;;;;;;8.65;3.42;;;;;;;7.91;100.00;99892.25;5048541;28;20048;-50
2021/12/29 00:23:26;;;;;;;9.05;3.75;;;;;;;8.00;100.00;99905.66;5051947;28;20427;-52
2021/12/29 00:25:55;;;;;;;11.43;3.45;;;;;;;7.97;100.00;99911.09;5051742;28;20484;-53
2021/12/29 00:28:23;;;;;;;11.25;3.97;;;;;;;7.97;100.00;99918.97;5051812;28;20057;-52
2021/12/29 00:30:51;;;;;;;11.18;3.80;;;;;;;7.94;100.00;99914.75;5052040;28;20045;-53
2021/12/29 00:33:19;;;;;;;8.60;3.45;;;;;;;7.94;100.00;99926.06;5051957;28;20056;-50
2021/12/29 00:35:48;;;;;;;8.45;3.60;;;;;;;7.92;100.00;99943.69;5048561;28;20045;-51
2021/12/29 00:38:16;;;;;;;8.45;4.05;;;;;;;7.92;100.00;99943.69;5048730;28;20095;-53
2021/12/29 00:40:46;;;;;;;9.60;3.40;;;;;;;7.93;100.00;99954.97;5051925;28;20045;-53
2021/12/29 00:43:14;;;;;;;8.45;3.65;;;;;;;7.90;100.00;99952.56;5051970;28;20481;-55
2021/12/29 00:45:42;;;;;;;9.07;3.67;;;;;;;7.90;100.00;99965.66;5051039;28;20041;-54
2021/12/29 00:48:13;;;;;;;9.18;3.78;;;;;;;7.94;100.00;99974.97;5051536;28;20570;-54
2021/12/29 00:50:42;;;;;;;10.32;3.78;;;;;;;7.91;100.00;99973.41;5051730;28;20500;-53
2021/12/29 00:53:10;;;;;;;8.88;3.40;;;;;;;7.93;100.00;99975.91;5051867;28;20479;-54
2021/12/29 00:55:39;;;;;;;7.22;3.08;;;;;;;7.89;100.00;99990.16;5051940;28;20049;-54
2021/12/29 00:58:09;;;;;;;7.60;2.85;;;;;;;7.90;100.00;99997.09;5050487;28;20049;-54
2021/12/29 01:00:40;;;;;;;6.82;3.40;;;;;;;7.87;100.00;99997.28;5047808;28;20045;-54
2021/12/29 01:03:10;;;;;;;8.23;3.17;;;;;;;7.90;100.00;100000.53;5051661;28;20247;-53
2021/12/29 01:05:38;;;;;;;6.80;2.97;;;;;;;7.87;100.00;100013.81;5051499;28;20041;-54
2021/12/29 01:08:07;;;;;;;8.35;3.15;;;;;;;7.87;100.00;100018.25;5050471;28;20073;-53
2021/12/29 01:10:36;;;;;;;9.55;2.97;;;;;;;7.91;100.00;100023.16;5052098;28;20044;-54
2021/12/29 01:13:06;;;;;;;9.10;3.67;;;;;;;7.92;100.00;100037.94;5051497;28;20104;-52
2021/12/29 01:15:55;;;;;;;8.60;3.30;;;;;;;7.90;100.00;100033.72;5049787;28;20061;-54
2021/12/29 01:18:25;;;;;;;11.60;4.32;;;;;;;7.89;100.00;100050.38;5031270;28;20141;-52
2021/12/29 01:20:55;;;;;;;9.18;4.10;;;;;;;7.90;100.00;100041.59;5051129;28;20049;-54
2021/12/29 01:23:23;;;;;;;10.25;3.80;;;;;;;7.90;100.00;100047.66;5051446;28;20049;-53
2021/12/29 01:25:52;;;;;;;10.75;3.90;;;;;;;7.91;100.00;100072.06;5034922;28;20045;-54
2021/12/29 01:28:20;;;;;;;10.60;4.60;;;;;;;7.93;100.00;100070.19;5031432;28;20075;-51
2021/12/29 01:30:50;;;;;;;8.95;3.63;;;;;;;7.94;100.00;100080.53;5029971;28;20080;-52
2021/12/29 01:33:18;;;;;;;10.07;3.83;;;;;;;7.92;100.00;100090.28;5030318;28;20052;-53
2021/12/29 01:35:46;;;;;;;10.43;3.80;;;;;;;7.97;100.00;100091.78;5040062;28;20105;-51
2021/12/29 01:38:14;;;;;;;9.65;3.60;;;;;;;7.96;100.00;100098.78;5051322;28;20061;-52
2021/12/29 01:40:43;;;;;;;9.52;4.10;;;;;;;8.02;100.00;100110.66;5052254;28;20053;-51
2021/12/29 01:43:11;;;;;;;11.15;4.15;;;;;;;7.95;100.00;100107.59;5054866;28;20076;-52
2021/12/29 01:45:39;;;;;;;11.23;4.60;;;;;;;7.94;100.00;100119.81;5049612;28;20088;-53
2021/12/29 01:48:09;;;;;;;14.32;5.35;;;;;;;7.92;100.00;100126.94;5034769;28;20091;-53
2021/12/29 01:50:38;;;;;;;16.08;5.20;;;;;;;7.93;100.00;100131.25;5034690;28;20103;-52
2021/12/29 01:53:09;;;;;;;17.10;6.03;;;;;;;7.98;100.00;100130.13;5034431;28;20049;-54
2021/12/29 01:55:37;;;;;;;12.68;5.57;;;;;;;7.95;100.00;100131.97;5031987;28;20053;-51
2021/12/29 01:58:06;;;;;;;13.20;5.45;;;;;;;7.95;100.00;100134.59;5052512;28;20059;-53
2021/12/29 02:00:37;;;;;;;17.83;5.57;;;;;;;8.00;100.00;100134.28;5047749;28;20040;-52
2021/12/29 02:03:08;;;;;;;13.00;5.45;;;;;;;7.94;100.00;100135.53;5051717;28;20052;-52
2021/12/29 02:05:38;;;;;;;15.32;5.47;;;;;;;7.93;100.00;100133.88;5054077;28;20055;-55
2021/12/29 02:08:07;;;;;;;13.65;5.50;;;;;;;7.94;100.00;100132.91;5036067;28;20060;-53
2021/12/29 02:10:42;;;;;;;17.58;6.50;;;;;;;7.98;100.00;100133.56;5032956;28;20429;-52
2021/12/29 02:13:14;;;;;;;18.63;5.93;;;;;;;7.97;100.00;100133.66;5033710;28;20080;-53
2021/12/29 02:15:42;;;;;;;14.48;6.30;;;;;;;7.93;100.00;100139.13;5034146;28;20107;-52
2021/12/29 02:18:14;;;;;;;15.60;6.30;;;;;;;7.92;100.00;100153.13;5045095;28;20114;-51
2021/12/29 02:20:45;;;;;;;17.05;6.90;;;;;;;7.94;100.00;100148.63;5054225;28;20043;-52
2021/12/29 02:23:18;;;;;;;16.13;6.70;;;;;;;7.95;100.00;100152.09;5037848;28;20049;-52
2021/12/29 02:25:52;;;;;;;14.68;6.05;;;;;;;7.96;100.00;100161.63;5034130;28;20057;-52
2021/12/29 02:28:26;;;;;;;16.63;6.72;;;;;;;7.93;100.00;100178.38;5050779;28;20451;-53
2021/12/29 02:30:55;;;;;;;16.13;7.10;;;;;;;7.99;100.00;100189.38;5054032;28;20103;-54
2021/12/29 02:33:24;;;;;;;16.02;6.35;;;;;;;7.95;100.00;100189.59;5053887;28;20495;-51
2021/12/29 02:35:54;;;;;;;18.55;6.60;;;;;;;7.94;100.00;100190.53;5053812;28;20048;-52
2021/12/29 02:38:27;;;;;;;14.20;7.00;;;;;;;7.94;100.00;100195.75;5050757;28;20046;-53
2021/12/29 02:40:58;;;;;;;18.10;5.88;;;;;;;7.95;100.00;100196.63;5051502;28;20052;-55
2021/12/29 02:43:26;;;;;;;16.23;6.07;;;;;;;7.91;100.00;100211.66;5051541;28;20132;-52
2021/12/29 02:45:58;;;;;;;15.30;6.07;;;;;;;7.93;100.00;100207.19;5053499;28;20049;-53
2021/12/29 02:48:29;;;;;;;16.08;5.85;;;;;;;7.94;100.00;100210.63;5053537;28;20049;-54
2021/12/29 02:51:00;;;;;;;14.57;5.90;;;;;;;7.95;100.00;100199.22;5035545;28;20483;-54
2021/12/29 02:53:29;;;;;;;13.23;5.40;;;;;;;7.93;100.00;100206.34;5033870;28;20909;-55
2021/12/29 02:55:57;;;;;;;14.27;5.30;;;;;;;7.91;100.00;100201.19;5047318;28;20095;-59
2021/12/29 02:58:26;;;;;;;13.23;5.25;;;;;;;7.95;100.00;100205.28;5031115;28;20103;-52
2021/12/29 03:00:57;;;;;;;11.57;5.10;;;;;;;7.92;100.00;100213.34;5043391;28;20056;-55
2021/12/29 03:03:28;;;;;;;14.73;5.25;;;;;;;7.93;100.00;100215.03;5053281;28;20057;-52
2021/12/29 03:05:58;;;;;;;13.07;5.18;;;;;;;7.95;100.00;100221.00;5053142;28;20053;-54
2021/12/29 03:08:27;;;;;;;13.65;6.07;;;;;;;7.90;100.00;100215.22;5052891;28;20407;-50
2021/12/29 03:10:55;;;;;;;17.40;5.72;;;;;;;7.97;100.00;100223.53;5045670;28;20111;-51
2021/12/29 03:13:25;;;;;;;11.75;5.05;;;;;;;7.97;100.00;100228.75;5033414;28;20417;-52
2021/12/29 03:15:54;;;;;;;10.38;4.97;;;;;;;7.94;100.00;100221.94;5033451;28;20061;-52
2021/12/29 03:18:22;;;;;;;11.00;4.72;;;;;;;7.97;100.00;100227.94;5033156;28;20515;-53
2021/12/29 03:20:50;;;;;;;13.88;5.68;;;;;;;7.95;100.00;100233.28;5034591;28;20057;-51
2021/12/29 03:23:21;;;;;;;13.38;4.80;;;;;;;7.94;100.00;100229.78;5032691;28;20065;-54
2021/12/29 03:25:49;;;;;;;12.52;5.05;;;;;;;7.95;100.00;100239.34;5030729;28;20734;-53
2021/12/29 03:28:18;;;;;;;11.63;5.32;;;;;;;7.91;100.00;100250.94;5032192;28;20045;-53
2021/12/29 03:30:51;;;;;;;13.32;5.03;;;;;;;7.90;100.00;100249.25;5032867;28;20037;-52
2021/12/29 03:33:20;;;;;;;16.73;5.95;;;;;;;7.94;100.00;100250.75;5033085;28;20053;-54
2021/12/29 03:35:51;;;;;;;11.60;5.32;;;;;;;7.95;100.00;100264.69;5038950;28;20397;-52
2021/12/29 03:38:24;;;;;;;11.10;5.28;;;;;;;7.97;100.00;100267.22;5050147;28;20048;-52
2021/12/29 03:40:53;;;;;;;11.57;4.85;;;;;;;7.98;100.00;100282.00;5048429;28;20048;-52
2021/12/29 03:43:22;;;;;;;9.52;3.80;;;;;;;7.91;100.00;100295.47;5038596;28;20037;-51
2021/12/29 03:45:52;;;;;;;8.75;3.58;;;;;;;7.92;100.00;100288.44;5032876;28;20046;-52
2021/12/29 03:48:22;;;;;;;13.52;4.15;;;;;;;7.91;100.00;100299.88;5032719;28;20041;-55
2021/12/29 03:50:50;;;;;;;15.20;4.70;;;;;;;7.93;100.00;100296.22;5032197;28;20045;-54
2021/12/29 03:53:20;;;;;;;12.07;4.97;;;;;;;7.92;100.00;100305.00;5030164;28;20080;-56
2021/12/29 03:55:50;;;;;;;13.73;4.55;;;;;;;7.87;100.00;100304.44;5048720;28;20049;-54
2021/12/29 03:58:19;;;;;;;14.98;5.75;;;;;;;7.86;100.00;100315.84;5052163;28;20049;-54
2021/12/29 04:00:48;;;;;;;16.75;5.65;;;;;;;7.87;100.00;100320.16;5052270;28;20492;-55
2021/12/29 04:03:16;;;;;;;19.20;7.72;;;;;;;7.87;100.00;100317.53;5050642;28;20037;-53
2021/12/29 04:05:46;;;;;;;15.65;6.05;;;;;;;7.86;100.00;100325.50;5043825;28;20080;-53
2021/12/29 04:08:15;;;;;;;16.58;5.45;;;;;;;7.84;100.00;100322.97;5051385;28;20033;-53
2021/12/29 04:10:45;;;;;;;12.35;4.97;;;;;;;7.84;100.00;100324.72;5052100;28;20052;-53
2021/12/29 04:13:13;;;;;;;13.40;5.53;;;;;;;7.85;100.00;100319.38;5051599;28;20115;-52
2021/12/29 04:15:41;;;;;;;14.38;5.25;;;;;;;7.85;100.00;100326.41;5048905;28;20400;-53
2021/12/29 04:18:25;;;;;;;14.57;5.03;;;;;;;7.86;100.00;100328.94;5051288;28;20052;-53
2021/12/29 04:20:55;;;;;;;19.67;5.10;;;;;;;7.89;100.00;100331.34;5051885;28;20051;-54
2021/12/29 04:23:26;;;;;;;12.63;4.68;;;;;;;7.90;100.00;100333.03;5048546;28;20484;-52
2021/12/29 04:25:56;;;;;;;12.85;4.78;;;;;;;7.90;100.00;100335.66;5050205;28;20049;-52
2021/12/29 04:28:26;;;;;;;14.45;4.97;;;;;;;7.91;100.00;100339.13;5051714;28;20091;-54
2021/12/29 04:30:57;;;;;;;12.25;5.10;;;;;;;7.87;100.00;100335.03;5051980;28;20049;-53
2021/12/29 04:33:27;;;;;;;14.52;5.30;;;;;;;7.82;100.00;100347.56;5051842;28;20491;-53
2021/12/29 04:35:55;;;;;;;12.45;4.72;;;;;;;7.85;100.00;100355.22;5052413;28;20507;-52
2021/12/29 04:38:24;;;;;;;14.35;4.85;;;;;;;7.87;100.00;100348.94;5051613;28;20060;-54
2021/12/29 04:40:56;;;;;;;14.63;4.65;;;;;;;7.83;100.00;100357.09;5051323;28;20527;-53
2021/12/29 04:43:26;;;;;;;11.20;4.97;;;;;;;7.77;100.00;100356.53;5049352;28;20585;-51
2021/12/29 04:45:55;;;;;;;11.90;4.53;;;;;;;7.80;100.00;100358.13;5048484;28;20449;-53
2021/12/29 04:48:24;;;;;;;13.82;4.68;;;;;;;7.85;100.00;100355.22;5051270;28;20041;-53
2021/12/29 04:51:03;;;;;;;10.95;4.55;;;;;;;7.82;100.00;100356.25;5050361;28;20041;-53
2021/12/29 04:53:34;;;;;;;13.32;4.50;;;;;;;7.83;100.00;100362.34;5047890;28;20053;-52
2021/12/29 04:56:04;;;;;;;12.20;4.63;;;;;;;7.80;100.00;100368.59;5050797;28;20476;-52
2021/12/29 04:58:32;;;;;;;14.82;4.57;;;;;;;7.83;100.00;100373.63;5051534;28;20052;-53
2021/12/29 05:01:00;;;;;;;12.35;3.92;;;;;;;7.81;100.00;100380.72;5051608;28;20468;-53
2021/12/29 05:03:28;;;;;;;13.63;4.25;;;;;;;7.85;100.00;100381.41;5051598;28;20048;-52
2021/12/29 05:08:24;;;;;;;11.23;4.65;;;;;;;7.80;100.00;100389.53;5048522;28;20061;-52
2021/12/29 05:08:45;;;;;;;12.60;4.20;;;;;;;7.81;100.00;100395.59;5051495;28;20514;-53
2021/12/29 05:11:16;;;;;;;12.07;4.35;;;;;;;7.79;100.00;100404.38;5055691;28;20422;-54
2021/12/29 05:13:45;;;;;;;12.68;4.53;;;;;;;7.79;100.00;100399.16;5055529;28;20052;-54
2021/12/29 05:16:14;;;;;;;11.75;5.00;;;;;;;7.83;100.00;100407.69;5055682;28;20424;-54
2021/12/29 05:18:44;;;;;;;11.13;3.95;;;;;;;7.77;100.00;100405.41;5054947;28;20083;-52
2021/12/29 05:21:12;;;;;;;10.10;5.00;;;;;;;7.76;100.00;100414.22;5054646;28;20068;-53
2021/12/29 05:23:40;;;;;;;14.30;5.45;;;;;;;7.77;100.00;100402.78;5054357;28;20059;-52
2021/12/29 05:26:08;;;;;;;14.02;4.72;;;;;;;7.79;100.00;100409.63;5052655;28;20492;-54
2021/12/29 05:28:38;;;;;;;12.02;4.68;;;;;;;7.80;100.00;100415.72;5053462;28;20072;-54
2021/12/29 05:31:06;;;;;;;10.38;4.97;;;;;;;7.84;100.00;100411.13;5055075;28;20036;-53
2021/12/29 05:33:34;;;;;;;12.77;5.50;;;;;;;7.83;100.00;100415.53;5055002;28;20079;-53
2021/12/29 05:36:02;;;;;;;12.02;5.28;;;;;;;7.82;100.00;100413.84;5054868;28;20614;-53
2021/12/29 05:38:30;;;;;;;11.38;5.13;;;;;;;7.86;100.00;100412.72;5054901;28;20049;-53
2021/12/29 05:40:58;;;;;;;14.88;4.60;;;;;;;7.90;100.00;100411.59;5054788;28;20049;-54
2021/12/29 05:43:26;;;;;;;11.80;5.47;;;;;;;7.84;100.00;100417.22;5054707;28;20106;-54
2021/12/29 05:45:56;;;;;;;14.10;5.95;;;;;;;7.85;100.00;100416.25;5055038;28;20561;-53
2021/12/29 05:48:24;;;;;;;10.20;5.70;;;;;;;7.84;100.00;100411.13;5054518;28;20503;-55
2021/12/29 05:50:52;;;;;;;11.77;4.78;;;;;;;7.79;100.00;100419.28;5054801;28;20432;-54
2021/12/29 05:53:20;;;;;;;18.23;5.30;;;;;;;7.79;100.00;100419.28;5051259;28;20044;-52
2021/12/29 05:55:48;;;;;;;10.38;5.22;;;;;;;7.80;100.00;100426.19;5053178;28;20441;-53
2021/12/29 05:58:17;;;;;;;12.43;6.15;;;;;;;7.85;100.00;100429.34;5054435;28;20045;-55
2021/12/29 06:00:45;;;;;;;12.98;5.63;;;;;;;7.88;100.00;100436.19;5051049;28;20654;-51
2021/12/29 06:03:15;;;;;;;14.35;6.03;;;;;;;7.85;100.00;100439.00;5051263;28;20088;-54
2021/12/29 06:05:43;;;;;;;12.07;5.55;;;;;;;7.84;100.00;100434.69;5054512;28;20118;-54
2021/12/29 06:08:12;;;;;;;13.18;5.80;;;;;;;7.84;100.00;100435.53;5054261;28;20037;-53
2021/12/29 06:10:40;;;;;;;13.30;6.15;;;;;;;7.82;100.00;100440.03;5054719;28;20075;-54
2021/12/29 06:13:09;;;;;;;11.32;6.40;;;;;;;7.78;100.00;100431.53;5054286;28;20099;-54
2021/12/29 06:15:37;;;;;;;13.15;7.03;;;;;;;7.81;100.00;100443.56;5050518;28;20052;-54
2021/12/29 06:18:08;;;;;;;13.10;5.82;;;;;;;7.83;100.00;100441.72;5051240;28;20087;-52
2021/12/29 06:20:38;;;;;;;11.15;6.18;;;;;;;7.83;100.00;100449.56;5053216;28;20400;-54
2021/12/29 06:23:07;;;;;;;10.38;6.03;;;;;;;7.85;100.00;100454.72;5052067;28;20049;-54
2021/12/29 06:25:35;;;;;;;13.82;5.97;;;;;;;7.84;100.00;100460.88;5050147;28;20551;-53
2021/12/29 06:28:04;;;;;;;11.85;5.97;;;;;;;7.82;100.00;100463.59;5053277;28;20041;-53
2021/12/29 06:30:32;;;;;;;12.23;6.07;;;;;;;7.84;100.00;100458.25;5050132;28;20053;-53
2021/12/29 06:33:00;;;;;;;10.70;5.55;;;;;;;7.87;100.00;100466.78;5051835;28;20041;-52
2021/12/29 06:35:28;;;;;;;12.43;6.45;;;;;;;7.87;100.00;100469.38;5053829;28;20045;-54
2021/12/29 06:37:58;;;;;;;11.98;5.45;;;;;;;7.88;100.00;100470.22;5050512;28;20454;-54
2021/12/29 06:40:26;;;;;;;10.23;5.68;;;;;;;7.90;100.00;100473.59;5049772;28;20048;-52
2021/12/29 06:42:54;;;;;;;11.55;5.55;;;;;;;7.84;100.00;100474.81;5053598;28;20392;-52
2021/12/29 06:45:26;;;;;;;11.43;5.82;;;;;;;7.87;100.00;100468.56;5053504;28;20045;-52
2021/12/29 06:47:56;;;;;;;11.40;5.68;;;;;;;7.83;100.00;100480.16;5051417;28;20494;-53
2021/12/29 06:50:24;;;;;;;12.15;5.57;;;;;;;7.83;100.00;100483.59;5049667;28;20435;-53
2021/12/29 06:52:52;;;;;;;11.45;5.57;;;;;;;7.84;100.00;100484.44;5052757;28;20107;-54
2021/12/29 06:55:21;;;;;;;10.07;5.32;;;;;;;7.81;100.00;100480.22;5053591;28;20049;-53
2021/12/29 06:57:51;;;;;;;10.52;5.78;;;;;;;7.82;100.00;100481.91;5053406;28;20052;-54
2021/12/29 07:00:20;;;;;;;10.77;5.28;;;;;;;7.85;100.00;100488.75;5053431;28;20136;-52
2021/12/29 07:02:48;;;;;;;10.70;5.43;;;;;;;7.84;100.00;100487.91;5050102;28;20454;-53
2021/12/29 07:05:17;;;;;;;11.48;5.60;;;;;;;7.88;100.00;100493.78;5050493;28;20389;-53
2021/12/29 07:07:49;;;;;;;11.98;6.25;;;;;;;7.80;100.00;100496.88;5052864;28;20072;-52
2021/12/29 07:10:17;;;;;;;11.00;5.80;;;;;;;7.80;100.00;100515.22;5051933;28;20408;-53
2021/12/29 07:12:47;;;;;;;14.70;6.32;;;;;;;7.80;100.00;100515.22;5053293;28;20545;-53
2021/12/29 07:15:15;;;;;;;14.10;6.50;;;;;;;7.79;100.00;100524.81;5053298;28;20049;-53
2021/12/29 07:17:43;;;;;;;15.35;7.22;;;;;;;7.79;100.00;100521.38;5053054;28;20053;-53
2021/12/29 07:20:12;;;;;;;16.77;7.22;;;;;;;7.80;100.00;100528.28;5052630;28;20041;-53
2021/12/29 07:22:40;;;;;;;16.60;7.57;;;;;;;7.75;100.00;100530.34;5049484;28;20056;-52
2021/12/29 07:25:09;;;;;;;16.70;8.27;;;;;;;7.76;100.00;100532.03;5050754;28;20064;-53
2021/12/29 07:27:37;;;;;;;14.77;6.80;;;;;;;7.77;100.00;100533.69;5052624;28;20052;-53
2021/12/29 07:30:08;;;;;;;15.32;7.03;;;;;;;7.76;100.00;100540.72;5051938;28;20103;-52
2021/12/29 07:32:36;;;;;;;19.90;7.20;;;;;;;7.76;100.00;100545.13;5051923;28;20049;-53
2021/12/29 07:35:05;;;;;;;19.08;7.82;;;;;;;7.76;100.00;100550.34;5050076;28;20049;-52
2021/12/29 07:37:33;;;;;;;18.80;7.97;;;;;;;7.73;100.00;100560.97;5049835;28;20048;-54
2021/12/29 07:40:06;;;;;;;15.82;8.02;;;;;;;7.74;100.00;100553.06;5052705;28;20056;-54
2021/12/29 07:42:34;;;;;;;14.98;7.43;;;;;;;7.75;100.00;100554.72;5052639;28;20515;-54
2021/12/29 07:45:06;;;;;;;16.13;7.40;;;;;;;7.76;100.00;100555.59;5052426;28;20049;-52
2021/12/29 07:47:35;;;;;;;15.20;7.75;;;;;;;7.74;100.00;100567.91;5052570;28;20071;-54
2021/12/29 07:50:05;;;;;;;14.35;7.45;;;;;;;7.75;100.00;100569.59;5052389;28;20040;-54
2021/12/29 07:52:53;;;;;;;14.48;7.53;;;;;;;7.78;100.00;100577.28;5052655;28;20099;-55
2021/12/29 07:55:21;;;;;;;15.52;7.18;;;;;;;7.78;100.00;100574.66;5050529;28;20079;-52
2021/12/29 07:57:50;;;;;;;14.85;6.88;;;;;;;7.77;100.00;100583.44;5049957;28;20061;-54
2021/12/29 08:00:18;;;;;;;14.32;7.00;;;;;;;7.78;100.00;100578.13;5050538;28;20103;-53
2021/12/29 08:02:48;;;;;;;13.10;6.85;;;;;;;7.75;100.00;100582.69;5049724;28;20049;-52
2021/12/29 08:05:16;;;;;;;14.45;7.00;;;;;;;7.74;100.00;100581.00;5050745;28;20047;-53
2021/12/29 08:07:46;;;;;;;14.70;7.20;;;;;;;7.77;100.00;100583.44;5052272;28;20186;-53
2021/12/29 08:10:14;;;;;;;16.33;6.75;;;;;;;7.80;100.00;100588.50;5052434;28;20384;-54
2021/12/29 08:12:42;;;;;;;13.50;6.85;;;;;;;7.79;100.00;100590.28;5052107;28;20373;-53
2021/12/29 08:15:11;;;;;;;11.68;6.68;;;;;;;7.77;100.00;100594.75;5050662;28;20435;-53
2021/12/29 08:17:39;;;;;;;14.35;6.80;;;;;;;7.77;100.00;100596.53;5049348;28;20060;-54
2021/12/29 08:20:10;;;;;;;13.98;7.00;;;;;;;7.77;100.00;100600.00;5051262;28;20041;-51
2021/12/29 08:22:39;;;;;;;13.10;6.82;;;;;;;7.77;100.00;100599.13;5051833;28;20045;-51
2021/12/29 08:25:09;;;;;;;14.88;7.32;;;;;;;7.75;100.00;100604.47;5051748;28;20049;-53
2021/12/29 08:27:37;;;;;;;13.15;7.07;;;;;;;7.76;100.00;100605.34;5051762;28;20080;-51
2021/12/29 08:30:07;;;;;;;13.77;7.95;;;;;;;7.73;100.00;100597.63;5051825;28;20045;-52
2021/12/29 08:32:38;;;;;;;20.77;8.13;;;;;;;7.70;100.00;100600.44;5051836;28;20048;-52
2021/12/29 08:35:06;;;;;;;18.58;8.15;;;;;;;7.74;100.00;100607.19;5049120;28;20388;-53
2021/12/29 08:37:36;;;;;;;17.40;8.13;;;;;;;7.75;100.00;100595.78;5048417;28;20407;-52
2021/12/29 08:40:07;;;;;;;16.95;8.73;;;;;;;7.72;100.00;100595.97;5050999;28;20436;-53
2021/12/29 08:42:36;;;;;;;18.85;8.65;;;;;;;7.74;100.00;100591.47;5050846;28;20048;-51
2021/12/29 08:45:04;;;;;;;16.27;8.23;;;;;;;7.75;100.00;100586.13;5054893;28;20053;-54
2021/12/29 08:47:33;;;;;;;15.80;8.32;;;;;;;7.75;100.00;100601.03;5055976;28;20045;-54
2021/12/29 08:50:01;;;;;;;17.17;8.43;;;;;;;7.73;100.00;100590.63;5055302;28;20077;-54
2021/12/29 08:52:29;;;;;;;17.08;9.15;;;;;;;7.73;100.00;100595.00;5055172;28;20052;-54
2021/12/29 08:54:58;;;;;;;16.77;8.52;;;;;;;7.79;100.00;100597.28;5055722;28;20044;-51
2021/12/29 08:57:28;;;;;;;15.85;9.20;;;;;;;7.79;100.00;100615.63;5055606;28;20075;-54
2021/12/29 08:59:56;;;;;;;19.90;9.45;;;;;;;7.78;100.00;100612.16;5055652;28;20091;-54
2021/12/29 09:02:25;;;;;;;20.73;9.70;;;;;;;7.78;100.00;100603.44;5055835;28;20484;-54
2021/12/29 09:04:54;;;;;;;20.88;10.13;;;;;;;7.81;100.00;100612.91;5054400;28;20045;-54
2021/12/29 09:07:22;;;;;;;20.50;9.48;;;;;;;7.76;100.00;100621.88;5052167;28;20533;-53
2021/12/29 09:09:50;;;;;;;21.25;10.30;;;;;;;7.77;100.00;100614.84;5054611;28;20095;-53
2021/12/29 09:12:20;;;;;;;18.83;9.43;;;;;;;7.79;100.00;100613.00;5052540;28;20079;-54
2021/12/29 09:14:48;;;;;;;17.42;9.70;;;;;;;7.81;100.00;100613.75;5053039;28;20044;-52
2021/12/29 09:17:16;;;;;;;16.92;9.45;;;;;;;7.82;100.00;100607.59;5055024;28;20049;-55
2021/12/29 09:19:45;;;;;;;19.05;9.68;;;;;;;7.83;100.00;100609.28;5054281;28;20044;-54
2021/12/29 09:22:14;;;;;;;16.77;9.25;;;;;;;7.80;100.00;100612.06;5051684;28;20037;-55
2021/12/29 09:24:45;;;;;;;18.73;10.25;;;;;;;7.80;100.00;100614.69;5052432;28;20110;-53
2021/12/29 09:27:14;;;;;;;19.00;9.68;;;;;;;7.79;100.00;100613.84;5055135;28;20733;-54
2021/12/29 09:29:43;;;;;;;21.40;9.52;;;;;;;7.81;100.00;100605.88;5055069;28;20575;-54
2021/12/29 09:32:12;;;;;;;19.67;9.95;;;;;;;7.81;100.00;100605.06;5055217;28;20052;-52
2021/12/29 09:34:40;;;;;;;20.15;9.50;;;;;;;7.82;100.00;100604.97;5053671;28;20094;-54
2021/12/29 09:37:08;;;;;;;19.95;9.88;;;;;;;7.87;100.00;100599.47;5051333;28;20048;-55
2021/12/29 09:39:36;;;;;;;17.08;9.10;;;;;;;7.89;100.00;100608.06;5054044;28;20438;-55
2021/12/29 09:42:05;;;;;;;17.65;9.98;;;;;;;7.85;100.00;100612.63;5055258;28;20143;-55
2021/12/29 09:44:33;;;;;;;20.63;10.02;;;;;;;7.82;100.00;100601.50;5053081;28;20045;-54
2021/12/29 09:47:04;;;;;;;19.90;10.80;;;;;;;7.88;100.00;100601.16;5054378;28;20078;-54
2021/12/29 09:49:34;;;;;;;19.40;10.32;;;;;;;7.87;100.00;100604.72;5053167;28;20443;-51
2021/12/29 09:52:02;;;;;;;19.02;10.50;;;;;;;7.88;100.00;100601.16;5050777;28;20408;-54
2021/12/29 09:54:30;;;;;;;20.35;9.55;;;;;;;7.92;100.00;100603.50;5053194;28;20045;-53
2021/12/29 09:57:00;;;;;;;19.27;9.35;;;;;;;7.92;100.00;100595.66;5054616;28;20057;-52
2021/12/29 09:59:28;;;;;;;19.27;9.90;;;;;;;7.87;100.00;100604.72;5054846;28;20069;-54
2021/12/29 10:01:58;;;;;;;21.90;10.32;;;;;;;7.93;100.00;100606.97;5054662;28;20049;-53
2021/12/29 10:04:27;;;;;;;19.70;9.45;;;;;;;7.97;100.00;100595.38;5054420;28;20070;-54
2021/12/29 10:06:55;;;;;;;21.23;10.63;;;;;;;7.97;100.00;100603.22;5050634;28;20055;-53
2021/12/29 10:09:23;;;;;;;18.85;9.75;;;;;;;7.95;100.00;100603.31;5051996;28;20549;-53
2021/12/29 10:11:53;;;;;;;18.20;9.65;;;;;;;7.91;100.00;100596.59;5054474;28;20094;-51
2021/12/29 10:14:23;;;;;;;27.25;9.98;;;;;;;7.95;100.00;100597.25;5054348;28;20044;-54
2021/12/29 10:16:52;;;;;;;22.05;9.93;;;;;;;7.95;100.00;100597.25;5054491;28;20091;-55
2021/12/29 10:19:20;;;;;;;17.35;9.32;;;;;;;7.98;100.00;100609.34;5054297;28;20041;-55
2021/12/29 10:21:50;;;;;;;17.92;9.18;;;;;;;8.02;100.00;100614.28;5053762;28;20044;-53
2021/12/29 10:24:20;;;;;;;17.00;9.18;;;;;;;8.06;100.00;100614.97;5053499;28;20045;-52
2021/12/29 10:26:50;;;;;;;18.55;9.40;;;;;;;8.08;100.00;100600.81;5052589;28;20064;-55
2021/12/29 10:29:22;;;;;;;21.88;10.00;;;;;;;8.08;100.00;100605.22;5052284;28;20041;-54
2021/12/29 10:31:52;;;;;;;18.92;10.07;;;;;;;8.05;100.00;100613.28;5050485;28;20041;-54
2021/12/29 10:34:24;;;;;;;17.13;9.95;;;;;;;8.08;100.00;100605.22;5053929;28;20078;-52
2021/12/29 10:36:57;;;;;;;23.25;11.10;;;;;;;8.11;100.00;100602.44;5054110;28;20083;-53
2021/12/29 10:39:29;;;;;;;18.67;9.93;;;;;;;8.07;100.00;100596.53;5053930;28;20059;-55
2021/12/29 10:41:59;;;;;;;17.40;9.77;;;;;;;8.08;100.00;100582.50;5053925;28;20048;-54
2021/12/29 10:44:31;;;;;;;22.50;10.05;;;;;;;8.07;100.00;100579.97;5053703;28;20048;-54
2021/12/29 10:47:01;;;;;;;20.23;9.80;;;;;;;8.11;100.00;100565.75;5053677;28;20041;-52
2021/12/29 10:49:31;;;;;;;18.00;9.82;;;;;;;8.15;100.00;100559.41;5053455;28;20068;-53
2021/12/29 10:52:01;;;;;;;17.42;9.68;;;;;;;8.16;100.00;100553.22;5050130;28;20056;-53
2021/12/29 10:54:29;;;;;;;18.02;10.65;;;;;;;8.11;100.00;100557.91;5050479;28;20103;-52
2021/12/29 10:57:04;;;;;;;19.67;10.10;;;;;;;8.17;100.00;100559.34;5053151;28;20097;-51
2021/12/29 10:59:35;;;;;;;20.55;10.07;;;;;;;8.16;100.00;100568.94;5053222;28;20044;-55
2021/12/29 11:02:05;;;;;;;18.15;9.00;;;;;;;8.23;100.00;100580.75;5053477;28;20063;-55
2021/12/29 11:04:34;;;;;;;22.63;9.55;;;;;;;8.15;100.00;100593.44;5053065;28;20072;-53
2021/12/29 11:07:07;;;;;;;17.98;9.75;;;;;;;8.14;100.00;100581.31;5053551;28;20514;-54
2021/12/29 11:09:38;;;;;;;19.02;10.18;;;;;;;8.16;100.00;100584.66;5050360;28;20059;-55
2021/12/29 11:12:11;;;;;;;15.38;9.25;;;;;;;8.23;100.00;100580.75;5051390;28;20123;-55
2021/12/29 11:14:42;;;;;;;17.45;9.02;;;;;;;8.29;100.00;100585.63;5053148;28;20049;-54
2021/12/29 11:17:15;;;;;;;18.13;8.80;;;;;;;8.29;100.00;100584.81;5053445;28;20467;-52
2021/12/29 11:19:50;;;;;;;19.50;9.02;;;;;;;8.34;100.00;100597.63;5048687;28;20045;-52
2021/12/29 11:22:23;;;;;;;16.80;9.10;;;;;;;8.32;100.00;100602.09;5049330;28;20045;-50
2021/12/29 11:24:56;;;;;;;19.63;8.88;;;;;;;8.40;100.00;100616.44;5052926;28;20053;-54
2021/12/29 11:27:25;;;;;;;17.42;10.15;;;;;;;8.38;100.00;100609.59;5053006;28;20059;-52
2021/12/29 11:29:56;;;;;;;16.10;9.27;;;;;;;8.39;100.00;100606.06;5050549;28;20123;-55